»·PEaware :: N666KP KSBP-KSBP

N666KP :: KSBP-KSBP

FLIGHT INFORMATION

Flight Status: Arrived
Operator: Privately registered:
United States
More flights under this callsign
Pilot: Matthew M. (24034)
Aircraft: CESSNA 172 SKYHAWK
(C172)
More flights by this aircraft type
Origin: KSBP San Luis Co Regl
United States
Destination: KSBP San Luis Co Regl
United States
More flights between these airports :: More routes between these airports
Route:
File this flight plan on PilotEdge
Remarks:
Altitude:
(Current/Filed)
1,200ft
Speed:
(Current/Filed)
110kts
Departed: 21-Nov-20 02:23 PM
Arrived: 21-Nov-20 02:40 PM
Distance/Time
Traveled:
0nm/0:17
Distance/Time
To Go:
Arrived

Flight Plot

Page will automatically refresh every two minutes.


Map Options




Map Legend


Flown Route
Filed Route
Departure Airport
Arrival Airport
Navaid (VOR, NDB)
Fix

Horizontal Profiles

Position Reports

Time Latitude Longitude Heading Altitude Ground
Speed
21-Nov-20 13:49 35.238679 -120.640969 29 191ft 0kts
21-Nov-20 13:50 35.238679 -120.640969 29 191ft 0kts
21-Nov-20 13:51 35.238679 -120.640969 29 191ft 0kts
21-Nov-20 13:52 35.238679 -120.640969 29 191ft 0kts
21-Nov-20 13:53 35.238679 -120.640969 29 191ft 0kts
21-Nov-20 13:54 35.238679 -120.640969 29 191ft 0kts
21-Nov-20 13:55 35.238679 -120.640969 29 191ft 0kts
21-Nov-20 13:56 35.238679 -120.640969 29 191ft 0kts
21-Nov-20 13:57 35.238679 -120.640969 29 191ft 0kts
21-Nov-20 13:58 35.238679 -120.640969 29 191ft 0kts
21-Nov-20 13:59 35.238679 -120.640969 29 191ft 0kts
21-Nov-20 14:00 35.238679 -120.640969 29 191ft 0kts
21-Nov-20 14:01 35.238679 -120.640969 29 191ft 0kts
21-Nov-20 14:03 35.238679 -120.640969 29 191ft 0kts
21-Nov-20 14:04 35.238679 -120.640969 29 191ft 0kts
21-Nov-20 14:05 35.238679 -120.640969 29 191ft 0kts
21-Nov-20 14:06 35.238679 -120.640969 29 191ft 0kts
21-Nov-20 14:07 35.238679 -120.640969 29 191ft 0kts
21-Nov-20 14:08 35.238679 -120.640969 29 191ft 0kts
21-Nov-20 14:09 35.238679 -120.640969 29 191ft 0kts
21-Nov-20 14:10 35.238679 -120.640969 29 191ft 0kts
21-Nov-20 14:11 35.238679 -120.640969 29 191ft 0kts
21-Nov-20 14:12 35.238307 -120.640833 158 192ft 3kts
21-Nov-20 14:13 35.236904 -120.638362 124 199ft 11kts
21-Nov-20 14:14 35.234807 -120.634670 127 211ft 14kts
21-Nov-20 14:15 35.233194 -120.632298 222 219ft 0kts
21-Nov-20 14:16 35.233194 -120.632298 222 219ft 0kts
21-Nov-20 14:17 35.233194 -120.632298 222 219ft 0kts
21-Nov-20 14:17 35.233194 -120.632298 222 219ft 0kts
21-Nov-20 14:19 35.233194 -120.632298 222 219ft 0kts
21-Nov-20 14:19 35.233194 -120.632298 222 219ft 0kts
21-Nov-20 14:20 35.233194 -120.632298 222 219ft 0kts
21-Nov-20 14:22 35.233027 -120.632533 228 218ft 11kts
21-Nov-20 14:22 35.238893 -120.643191 305 349ft 77kts
21-Nov-20 14:24 35.244634 -120.667681 214 1047ft 85kts
21-Nov-20 14:24 35.229344 -120.653894 127 1199ft 96kts
21-Nov-20 14:26 35.209869 -120.624349 107 951ft 95kts
21-Nov-20 14:26 35.221966 -120.613067 309 679ft 72kts
21-Nov-20 14:27 35.233731 -120.634727 303 216ft 66kts
21-Nov-20 14:28 35.244825 -120.654657 299 568ft 83kts
21-Nov-20 14:29 35.239897 -120.675216 191 1046ft 96kts
21-Nov-20 14:30 35.223342 -120.648648 124 1197ft 106kts
21-Nov-20 14:31 35.210316 -120.620047 85 1033ft 91kts
21-Nov-20 14:32 35.227683 -120.623814 301 550ft 73kts
21-Nov-20 14:33 35.237799 -120.641640 304 225ft 69kts
21-Nov-20 14:34 35.250261 -120.663603 289 861ft 79kts
21-Nov-20 14:35 35.234769 -120.667059 124 1189ft 91kts
21-Nov-20 14:36 35.220338 -120.641765 126 1299ft 91kts
21-Nov-20 14:37 35.213335 -120.615414 35 897ft 98kts
21-Nov-20 14:38 35.230895 -120.629697 301 368ft 73kts
21-Nov-20 14:39 35.237530 -120.639930 7 194ft 0kts
21-Nov-20 14:40 35.237530 -120.639930 7 194ft 0kts
21-Nov-20 14:41 35.237530 -120.639930 7 194ft 0kts
21-Nov-20 14:42 35.237530 -120.639930 7 194ft 0kts
21-Nov-20 14:43 35.238640 -120.640966 36 191ft 4kts
21-Nov-20 14:44 35.238647 -120.640960 32 191ft 0kts

Navigation Log

Ident Type
Flight plan parsing failed, navigation log unavailable